sensor_id;sensor_type;location;lat;lon;timestamp;P1;durP1;ratioP1;P2;durP2;ratioP2
57565;SDS011;63999;43.882;-0.310;2023-03-31T00:01:28;6.25;;;2.00;;
57565;SDS011;63999;43.882;-0.310;2023-03-31T00:03:55;8.15;;;1.98;;
57565;SDS011;63999;43.882;-0.310;2023-03-31T00:06:30;9.18;;;2.20;;
57565;SDS011;63999;43.882;-0.310;2023-03-31T00:09:04;9.60;;;2.70;;
57565;SDS011;63999;43.882;-0.310;2023-03-31T00:11:32;9.70;;;2.47;;
57565;SDS011;63999;43.882;-0.310;2023-03-31T00:13:57;9.23;;;2.40;;
57565;SDS011;63999;43.882;-0.310;2023-03-31T00:16:23;7.35;;;2.35;;
57565;SDS011;63999;43.882;-0.310;2023-03-31T00:18:50;9.15;;;2.22;;
57565;SDS011;63999;43.882;-0.310;2023-03-31T00:21:17;9.43;;;2.63;;
57565;SDS011;63999;43.882;-0.310;2023-03-31T00:23:57;29.42;;;2.85;;
57565;SDS011;63999;43.882;-0.310;2023-03-31T00:26:31;9.38;;;2.38;;
57565;SDS011;63999;43.882;-0.310;2023-03-31T00:28:58;5.30;;;2.00;;
57565;SDS011;63999;43.882;-0.310;2023-03-31T00:31:25;13.25;;;3.20;;
57565;SDS011;63999;43.882;-0.310;2023-03-31T00:33:51;11.75;;;2.92;;
57565;SDS011;63999;43.882;-0.310;2023-03-31T00:36:18;8.50;;;2.42;;
57565;SDS011;63999;43.882;-0.310;2023-03-31T00:38:52;9.25;;;2.60;;
57565;SDS011;63999;43.882;-0.310;2023-03-31T00:41:23;7.35;;;2.38;;
57565;SDS011;63999;43.882;-0.310;2023-03-31T00:44:06;9.77;;;2.90;;
57565;SDS011;63999;43.882;-0.310;2023-03-31T00:49:22;7.30;;;2.63;;
57565;SDS011;63999;43.882;-0.310;2023-03-31T00:52:03;9.30;;;3.00;;
57565;SDS011;63999;43.882;-0.310;2023-03-31T00:54:34;12.45;;;2.80;;
57565;SDS011;63999;43.882;-0.310;2023-03-31T00:57:02;12.93;;;3.28;;
57565;SDS011;63999;43.882;-0.310;2023-03-31T00:59:31;10.80;;;3.72;;
57565;SDS011;63999;43.882;-0.310;2023-03-31T01:02:03;11.35;;;3.28;;
57565;SDS011;63999;43.882;-0.310;2023-03-31T01:04:34;9.25;;;3.55;;
57565;SDS011;63999;43.882;-0.310;2023-03-31T01:07:12;12.25;;;3.42;;
57565;SDS011;63999;43.882;-0.310;2023-03-31T01:09:43;10.20;;;3.25;;
57565;SDS011;63999;43.882;-0.310;2023-03-31T01:12:11;11.40;;;3.50;;
57565;SDS011;63999;43.882;-0.310;2023-03-31T01:14:39;13.98;;;4.05;;
57565;SDS011;63999;43.882;-0.310;2023-03-31T01:17:06;12.70;;;3.22;;
57565;SDS011;63999;43.882;-0.310;2023-03-31T01:33:56;10.20;;;4.07;;
57565;SDS011;63999;43.882;-0.310;2023-03-31T01:39:43;12.30;;;4.35;;
57565;SDS011;63999;43.882;-0.310;2023-03-31T01:42:41;11.77;;;4.18;;
57565;SDS011;63999;43.882;-0.310;2023-03-31T01:48:11;12.13;;;4.35;;
57565;SDS011;63999;43.882;-0.310;2023-03-31T01:50:58;8.50;;;4.05;;
57565;SDS011;63999;43.882;-0.310;2023-03-31T01:56:09;11.38;;;4.22;;
57565;SDS011;63999;43.882;-0.310;2023-03-31T01:58:43;11.73;;;4.20;;
57565;SDS011;63999;43.882;-0.310;2023-03-31T02:04:28;11.63;;;4.05;;
57565;SDS011;63999;43.882;-0.310;2023-03-31T02:07:01;12.88;;;4.28;;
57565;SDS011;63999;43.882;-0.310;2023-03-31T02:09:34;12.82;;;3.92;;
57565;SDS011;63999;43.882;-0.310;2023-03-31T02:12:03;10.45;;;4.05;;
57565;SDS011;63999;43.882;-0.310;2023-03-31T02:14:33;13.27;;;4.10;;
57565;SDS011;63999;43.882;-0.310;2023-03-31T02:17:02;12.32;;;4.03;;
57565;SDS011;63999;43.882;-0.310;2023-03-31T02:19:31;14.50;;;4.00;;
57565;SDS011;63999;43.882;-0.310;2023-03-31T02:22:00;11.38;;;3.95;;
57565;SDS011;63999;43.882;-0.310;2023-03-31T02:24:28;8.10;;;3.97;;
57565;SDS011;63999;43.882;-0.310;2023-03-31T02:27:05;9.98;;;3.47;;
57565;SDS011;63999;43.882;-0.310;2023-03-31T02:29:49;11.75;;;3.85;;
57565;SDS011;63999;43.882;-0.310;2023-03-31T02:35:08;10.25;;;3.20;;
57565;SDS011;63999;43.882;-0.310;2023-03-31T02:37:37;8.93;;;2.97;;
57565;SDS011;63999;43.882;-0.310;2023-03-31T02:40:06;14.57;;;3.92;;
57565;SDS011;63999;43.882;-0.310;2023-03-31T02:42:38;9.80;;;3.22;;
57565;SDS011;63999;43.882;-0.310;2023-03-31T02:45:38;12.73;;;3.17;;
57565;SDS011;63999;43.882;-0.310;2023-03-31T02:48:19;14.65;;;3.72;;
57565;SDS011;63999;43.882;-0.310;2023-03-31T02:59:12;18.25;;;3.53;;
57565;SDS011;63999;43.882;-0.310;2023-03-31T03:02:05;16.10;;;3.35;;
57565;SDS011;63999;43.882;-0.310;2023-03-31T03:07:11;13.48;;;3.13;;
57565;SDS011;63999;43.882;-0.310;2023-03-31T03:15:21;22.40;;;3.58;;
57565;SDS011;63999;43.882;-0.310;2023-03-31T03:17:57;16.88;;;3.38;;
57565;SDS011;63999;43.882;-0.310;2023-03-31T03:20:24;14.63;;;3.38;;
57565;SDS011;63999;43.882;-0.310;2023-03-31T03:22:50;21.75;;;3.60;;
57565;SDS011;63999;43.882;-0.310;2023-03-31T03:25:16;15.85;;;3.17;;
57565;SDS011;63999;43.882;-0.310;2023-03-31T03:27:42;12.43;;;2.70;;
57565;SDS011;63999;43.882;-0.310;2023-03-31T03:30:09;17.08;;;3.85;;
57565;SDS011;63999;43.882;-0.310;2023-03-31T03:32:36;16.02;;;3.58;;
57565;SDS011;63999;43.882;-0.310;2023-03-31T03:35:02;14.85;;;3.50;;
57565;SDS011;63999;43.882;-0.310;2023-03-31T03:37:30;21.13;;;3.90;;
57565;SDS011;63999;43.882;-0.310;2023-03-31T03:39:56;20.55;;;3.65;;
57565;SDS011;63999;43.882;-0.310;2023-03-31T03:42:22;19.48;;;4.35;;
57565;SDS011;63999;43.882;-0.310;2023-03-31T03:44:48;18.58;;;3.90;;
57565;SDS011;63999;43.882;-0.310;2023-03-31T03:47:14;20.67;;;4.13;;
57565;SDS011;63999;43.882;-0.310;2023-03-31T03:49:40;18.65;;;4.70;;
57565;SDS011;63999;43.882;-0.310;2023-03-31T03:52:06;17.83;;;3.92;;
57565;SDS011;63999;43.882;-0.310;2023-03-31T03:54:32;19.38;;;4.15;;
57565;SDS011;63999;43.882;-0.310;2023-03-31T03:56:58;25.13;;;4.60;;
57565;SDS011;63999;43.882;-0.310;2023-03-31T03:59:24;20.13;;;4.40;;
57565;SDS011;63999;43.882;-0.310;2023-03-31T04:01:50;20.42;;;4.10;;
57565;SDS011;63999;43.882;-0.310;2023-03-31T04:04:16;21.17;;;4.32;;
57565;SDS011;63999;43.882;-0.310;2023-03-31T04:06:43;20.88;;;4.07;;
57565;SDS011;63999;43.882;-0.310;2023-03-31T04:09:08;23.73;;;4.97;;
57565;SDS011;63999;43.882;-0.310;2023-03-31T04:11:34;26.08;;;4.95;;
57565;SDS011;63999;43.882;-0.310;2023-03-31T04:14:00;21.75;;;4.57;;
57565;SDS011;63999;43.882;-0.310;2023-03-31T04:16:26;22.83;;;4.57;;
57565;SDS011;63999;43.882;-0.310;2023-03-31T04:18:53;30.38;;;4.85;;
57565;SDS011;63999;43.882;-0.310;2023-03-31T04:21:23;22.30;;;5.05;;
57565;SDS011;63999;43.882;-0.310;2023-03-31T04:23:50;24.60;;;4.60;;
57565;SDS011;63999;43.882;-0.310;2023-03-31T04:26:22;21.23;;;4.43;;
57565;SDS011;63999;43.882;-0.310;2023-03-31T04:31:24;19.70;;;3.88;;
57565;SDS011;63999;43.882;-0.310;2023-03-31T04:33:52;22.83;;;3.83;;
57565;SDS011;63999;43.882;-0.310;2023-03-31T04:36:18;16.48;;;3.67;;
57565;SDS011;63999;43.882;-0.310;2023-03-31T04:38:45;20.77;;;4.40;;
57565;SDS011;63999;43.882;-0.310;2023-03-31T04:41:15;24.95;;;4.97;;
57565;SDS011;63999;43.882;-0.310;2023-03-31T04:43:41;25.10;;;4.78;;
57565;SDS011;63999;43.882;-0.310;2023-03-31T04:46:07;25.85;;;5.30;;
57565;SDS011;63999;43.882;-0.310;2023-03-31T04:48:33;20.98;;;4.15;;
57565;SDS011;63999;43.882;-0.310;2023-03-31T04:51:00;34.10;;;5.88;;
57565;SDS011;63999;43.882;-0.310;2023-03-31T04:53:26;25.67;;;5.28;;
57565;SDS011;63999;43.882;-0.310;2023-03-31T04:55:52;29.48;;;5.45;;
57565;SDS011;63999;43.882;-0.310;2023-03-31T04:58:18;27.35;;;5.72;;
57565;SDS011;63999;43.882;-0.310;2023-03-31T05:00:43;21.17;;;5.10;;
57565;SDS011;63999;43.882;-0.310;2023-03-31T05:03:10;21.17;;;5.25;;
57565;SDS011;63999;43.882;-0.310;2023-03-31T05:05:35;27.70;;;5.53;;
57565;SDS011;63999;43.882;-0.310;2023-03-31T05:08:02;26.65;;;5.28;;
57565;SDS011;63999;43.882;-0.310;2023-03-31T05:10:28;19.42;;;5.13;;
57565;SDS011;63999;43.882;-0.310;2023-03-31T05:12:54;31.63;;;6.53;;
57565;SDS011;63999;43.882;-0.310;2023-03-31T05:15:20;25.92;;;4.72;;
57565;SDS011;63999;43.882;-0.310;2023-03-31T05:17:46;24.95;;;5.35;;
57565;SDS011;63999;43.882;-0.310;2023-03-31T05:20:12;32.47;;;6.20;;
57565;SDS011;63999;43.882;-0.310;2023-03-31T05:22:40;28.98;;;5.40;;
57565;SDS011;63999;43.882;-0.310;2023-03-31T05:25:07;30.25;;;5.65;;
57565;SDS011;63999;43.882;-0.310;2023-03-31T05:27:37;31.92;;;6.38;;
57565;SDS011;63999;43.882;-0.310;2023-03-31T05:30:03;28.48;;;5.35;;
57565;SDS011;63999;43.882;-0.310;2023-03-31T05:32:29;29.48;;;5.80;;
57565;SDS011;63999;43.882;-0.310;2023-03-31T05:34:55;28.08;;;5.70;;
57565;SDS011;63999;43.882;-0.310;2023-03-31T05:37:24;25.45;;;5.30;;
57565;SDS011;63999;43.882;-0.310;2023-03-31T05:39:51;37.17;;;6.40;;
57565;SDS011;63999;43.882;-0.310;2023-03-31T05:42:18;28.40;;;5.57;;
57565;SDS011;63999;43.882;-0.310;2023-03-31T05:44:44;22.95;;;5.30;;
57565;SDS011;63999;43.882;-0.310;2023-03-31T05:47:10;27.95;;;5.93;;
57565;SDS011;63999;43.882;-0.310;2023-03-31T05:49:36;35.28;;;6.13;;
57565;SDS011;63999;43.882;-0.310;2023-03-31T05:52:03;27.00;;;6.50;;
57565;SDS011;63999;43.882;-0.310;2023-03-31T05:54:30;27.60;;;5.88;;
57565;SDS011;63999;43.882;-0.310;2023-03-31T05:56:56;32.15;;;5.85;;
57565;SDS011;63999;43.882;-0.310;2023-03-31T05:59:22;34.17;;;6.57;;
57565;SDS011;63999;43.882;-0.310;2023-03-31T06:01:48;29.25;;;6.10;;
57565;SDS011;63999;43.882;-0.310;2023-03-31T06:04:14;25.80;;;5.78;;
57565;SDS011;63999;43.882;-0.310;2023-03-31T06:06:40;25.98;;;5.28;;
57565;SDS011;63999;43.882;-0.310;2023-03-31T06:09:07;36.53;;;6.55;;
57565;SDS011;63999;43.882;-0.310;2023-03-31T06:11:32;39.25;;;6.80;;
57565;SDS011;63999;43.882;-0.310;2023-03-31T06:13:58;31.40;;;6.32;;
57565;SDS011;63999;43.882;-0.310;2023-03-31T06:16:24;28.70;;;6.72;;
57565;SDS011;63999;43.882;-0.310;2023-03-31T06:18:50;37.83;;;7.10;;
57565;SDS011;63999;43.882;-0.310;2023-03-31T06:21:17;32.25;;;6.75;;
57565;SDS011;63999;43.882;-0.310;2023-03-31T06:23:44;43.47;;;6.88;;
57565;SDS011;63999;43.882;-0.310;2023-03-31T06:26:11;31.88;;;6.07;;
57565;SDS011;63999;43.882;-0.310;2023-03-31T06:28:42;32.25;;;6.40;;
57565;SDS011;63999;43.882;-0.310;2023-03-31T06:31:09;29.98;;;6.05;;
57565;SDS011;63999;43.882;-0.310;2023-03-31T06:33:37;27.38;;;6.10;;
57565;SDS011;63999;43.882;-0.310;2023-03-31T06:36:04;34.30;;;6.97;;
57565;SDS011;63999;43.882;-0.310;2023-03-31T06:38:31;36.92;;;6.88;;
57565;SDS011;63999;43.882;-0.310;2023-03-31T06:40:58;30.30;;;6.30;;
57565;SDS011;63999;43.882;-0.310;2023-03-31T06:43:25;35.83;;;7.43;;
57565;SDS011;63999;43.882;-0.310;2023-03-31T06:45:52;40.10;;;7.90;;
57565;SDS011;63999;43.882;-0.310;2023-03-31T06:48:18;33.33;;;7.22;;
57565;SDS011;63999;43.882;-0.310;2023-03-31T06:50:48;32.53;;;6.90;;
57565;SDS011;63999;43.882;-0.310;2023-03-31T06:53:17;31.23;;;6.75;;
57565;SDS011;63999;43.882;-0.310;2023-03-31T06:55:46;30.00;;;6.13;;
57565;SDS011;63999;43.882;-0.310;2023-03-31T07:00:45;35.58;;;7.38;;
57565;SDS011;63999;43.882;-0.310;2023-03-31T07:03:12;37.63;;;7.43;;
57565;SDS011;63999;43.882;-0.310;2023-03-31T07:05:38;42.95;;;7.50;;
57565;SDS011;63999;43.882;-0.310;2023-03-31T07:08:05;33.38;;;6.50;;
57565;SDS011;63999;43.882;-0.310;2023-03-31T07:10:34;35.97;;;7.72;;
57565;SDS011;63999;43.882;-0.310;2023-03-31T07:13:04;37.10;;;7.63;;
57565;SDS011;63999;43.882;-0.310;2023-03-31T07:15:31;29.98;;;6.63;;
57565;SDS011;63999;43.882;-0.310;2023-03-31T07:18:04;44.78;;;7.95;;
57565;SDS011;63999;43.882;-0.310;2023-03-31T07:20:31;29.25;;;6.35;;
57565;SDS011;63999;43.882;-0.310;2023-03-31T07:22:57;31.63;;;6.30;;
57565;SDS011;63999;43.882;-0.310;2023-03-31T07:25:24;34.00;;;6.82;;
57565;SDS011;63999;43.882;-0.310;2023-03-31T07:27:50;45.03;;;7.57;;
57565;SDS011;63999;43.882;-0.310;2023-03-31T07:30:17;37.65;;;7.85;;
57565;SDS011;63999;43.882;-0.310;2023-03-31T07:32:48;31.05;;;7.30;;
57565;SDS011;63999;43.882;-0.310;2023-03-31T07:35:15;44.17;;;8.15;;
57565;SDS011;63999;43.882;-0.310;2023-03-31T07:37:54;36.03;;;7.43;;
57565;SDS011;63999;43.882;-0.310;2023-03-31T07:40:27;38.25;;;7.93;;
57565;SDS011;63999;43.882;-0.310;2023-03-31T07:42:54;33.45;;;7.30;;
57565;SDS011;63999;43.882;-0.310;2023-03-31T07:45:22;34.25;;;7.35;;
57565;SDS011;63999;43.882;-0.310;2023-03-31T07:47:49;24.20;;;5.82;;
57565;SDS011;63999;43.882;-0.310;2023-03-31T07:50:15;31.92;;;6.32;;
57565;SDS011;63999;43.882;-0.310;2023-03-31T07:52:44;39.53;;;7.65;;
57565;SDS011;63999;43.882;-0.310;2023-03-31T07:55:11;29.17;;;6.25;;
57565;SDS011;63999;43.882;-0.310;2023-03-31T07:57:43;36.17;;;7.13;;
57565;SDS011;63999;43.882;-0.310;2023-03-31T08:00:11;38.38;;;6.78;;
57565;SDS011;63999;43.882;-0.310;2023-03-31T08:02:40;39.53;;;7.50;;
57565;SDS011;63999;43.882;-0.310;2023-03-31T08:05:11;35.60;;;6.93;;
57565;SDS011;63999;43.882;-0.310;2023-03-31T08:07:38;36.00;;;7.07;;
57565;SDS011;63999;43.882;-0.310;2023-03-31T08:10:07;39.20;;;7.03;;
57565;SDS011;63999;43.882;-0.310;2023-03-31T08:12:38;39.22;;;7.90;;
57565;SDS011;63999;43.882;-0.310;2023-03-31T08:15:07;34.35;;;7.20;;
57565;SDS011;63999;43.882;-0.310;2023-03-31T08:17:47;31.30;;;7.18;;
57565;SDS011;63999;43.882;-0.310;2023-03-31T08:20:20;33.38;;;7.28;;
57565;SDS011;63999;43.882;-0.310;2023-03-31T08:22:49;35.80;;;6.20;;
57565;SDS011;63999;43.882;-0.310;2023-03-31T08:25:15;33.72;;;7.65;;
57565;SDS011;63999;43.882;-0.310;2023-03-31T08:27:45;33.85;;;7.10;;
57565;SDS011;63999;43.882;-0.310;2023-03-31T08:30:15;37.25;;;7.30;;
57565;SDS011;63999;43.882;-0.310;2023-03-31T08:32:42;40.80;;;7.47;;
57565;SDS011;63999;43.882;-0.310;2023-03-31T08:35:09;41.17;;;7.90;;
57565;SDS011;63999;43.882;-0.310;2023-03-31T08:37:37;34.67;;;7.05;;
57565;SDS011;63999;43.882;-0.310;2023-03-31T08:40:07;37.78;;;7.72;;
57565;SDS011;63999;43.882;-0.310;2023-03-31T08:42:48;28.50;;;6.35;;
57565;SDS011;63999;43.882;-0.310;2023-03-31T08:47:50;36.08;;;6.53;;
57565;SDS011;63999;43.882;-0.310;2023-03-31T08:50:24;29.15;;;6.88;;
57565;SDS011;63999;43.882;-0.310;2023-03-31T08:53:00;34.55;;;7.28;;
57565;SDS011;63999;43.882;-0.310;2023-03-31T08:55:51;32.60;;;6.47;;
57565;SDS011;63999;43.882;-0.310;2023-03-31T09:03:55;33.33;;;6.18;;
57565;SDS011;63999;43.882;-0.310;2023-03-31T09:06:53;30.15;;;7.07;;
57565;SDS011;63999;43.882;-0.310;2023-03-31T09:13:23;40.05;;;7.43;;
57565;SDS011;63999;43.882;-0.310;2023-03-31T09:15:47;32.25;;;6.07;;
57565;SDS011;63999;43.882;-0.310;2023-03-31T09:21:10;35.97;;;6.65;;
57565;SDS011;63999;43.882;-0.310;2023-03-31T09:26:39;31.02;;;5.93;;
57565;SDS011;63999;43.882;-0.310;2023-03-31T09:29:20;31.02;;;5.65;;
57565;SDS011;63999;43.882;-0.310;2023-03-31T09:34:15;30.23;;;6.15;;
57565;SDS011;63999;43.882;-0.310;2023-03-31T09:36:52;35.20;;;6.28;;
57565;SDS011;63999;43.882;-0.310;2023-03-31T09:39:19;34.80;;;6.38;;
57565;SDS011;63999;43.882;-0.310;2023-03-31T09:41:46;26.42;;;5.57;;
57565;SDS011;63999;43.882;-0.310;2023-03-31T09:44:21;27.58;;;5.78;;
57565;SDS011;63999;43.882;-0.310;2023-03-31T09:46:47;27.60;;;6.00;;
57565;SDS011;63999;43.882;-0.310;2023-03-31T09:49:17;25.65;;;5.57;;
57565;SDS011;63999;43.882;-0.310;2023-03-31T09:51:49;33.40;;;5.45;;
57565;SDS011;63999;43.882;-0.310;2023-03-31T09:54:48;34.83;;;6.07;;
57565;SDS011;63999;43.882;-0.310;2023-03-31T09:57:23;25.98;;;5.18;;
57565;SDS011;63999;43.882;-0.310;2023-03-31T10:00:03;27.73;;;5.00;;
57565;SDS011;63999;43.882;-0.310;2023-03-31T10:03:23;22.67;;;4.70;;
57565;SDS011;63999;43.882;-0.310;2023-03-31T10:11:15;25.63;;;5.27;;
57565;SDS011;63999;43.882;-0.310;2023-03-31T10:16:21;22.65;;;4.28;;
57565;SDS011;63999;43.882;-0.310;2023-03-31T10:21:56;24.20;;;4.20;;
57565;SDS011;63999;43.882;-0.310;2023-03-31T10:24:34;25.77;;;5.03;;
57565;SDS011;63999;43.882;-0.310;2023-03-31T10:27:28;23.58;;;4.60;;
57565;SDS011;63999;43.882;-0.310;2023-03-31T10:32:27;24.05;;;4.97;;
57565;SDS011;63999;43.882;-0.310;2023-03-31T10:34:58;25.05;;;4.05;;
57565;SDS011;63999;43.882;-0.310;2023-03-31T10:37:30;24.10;;;4.72;;
57565;SDS011;63999;43.882;-0.310;2023-03-31T10:40:03;22.92;;;4.82;;
57565;SDS011;63999;43.882;-0.310;2023-03-31T10:42:33;19.60;;;4.10;;
57565;SDS011;63999;43.882;-0.310;2023-03-31T10:47:55;20.92;;;4.25;;
57565;SDS011;63999;43.882;-0.310;2023-03-31T10:50:27;20.17;;;4.38;;
57565;SDS011;63999;43.882;-0.310;2023-03-31T10:53:01;15.02;;;3.60;;
57565;SDS011;63999;43.882;-0.310;2023-03-31T10:58:42;18.58;;;4.32;;
57565;SDS011;63999;43.882;-0.310;2023-03-31T11:01:38;23.17;;;4.60;;
57565;SDS011;63999;43.882;-0.310;2023-03-31T11:07:25;14.55;;;3.67;;
57565;SDS011;63999;43.882;-0.310;2023-03-31T11:16:01;17.45;;;3.55;;
57565;SDS011;63999;43.882;-0.310;2023-03-31T11:18:44;15.68;;;3.58;;
57565;SDS011;63999;43.882;-0.310;2023-03-31T11:27:27;17.25;;;3.58;;
57565;SDS011;63999;43.882;-0.310;2023-03-31T11:35:38;16.55;;;3.72;;
57565;SDS011;63999;43.882;-0.310;2023-03-31T11:40:49;16.75;;;3.67;;
57565;SDS011;63999;43.882;-0.310;2023-03-31T11:46:07;18.70;;;3.63;;
57565;SDS011;63999;43.882;-0.310;2023-03-31T11:51:20;18.40;;;4.28;;
57565;SDS011;63999;43.882;-0.310;2023-03-31T11:53:53;20.40;;;3.67;;
57565;SDS011;63999;43.882;-0.310;2023-03-31T11:56:24;15.82;;;3.67;;
57565;SDS011;63999;43.882;-0.310;2023-03-31T11:58:56;16.08;;;3.72;;
57565;SDS011;63999;43.882;-0.310;2023-03-31T12:01:29;19.90;;;3.13;;
57565;SDS011;63999;43.882;-0.310;2023-03-31T12:04:19;18.10;;;3.55;;
57565;SDS011;63999;43.882;-0.310;2023-03-31T12:07:05;17.95;;;3.50;;
57565;SDS011;63999;43.882;-0.310;2023-03-31T12:10:02;13.32;;;3.25;;
57565;SDS011;63999;43.882;-0.310;2023-03-31T12:12:43;15.27;;;3.22;;
57565;SDS011;63999;43.882;-0.310;2023-03-31T12:15:29;20.58;;;3.22;;
57565;SDS011;63999;43.882;-0.310;2023-03-31T12:18:23;14.60;;;2.80;;
57565;SDS011;63999;43.882;-0.310;2023-03-31T12:20:57;14.23;;;3.28;;
57565;SDS011;63999;43.882;-0.310;2023-03-31T12:23:27;15.05;;;3.30;;
57565;SDS011;63999;43.882;-0.310;2023-03-31T12:28:27;18.33;;;3.83;;
57565;SDS011;63999;43.882;-0.310;2023-03-31T12:30:57;14.60;;;2.72;;
57565;SDS011;63999;43.882;-0.310;2023-03-31T12:33:31;18.02;;;3.53;;
57565;SDS011;63999;43.882;-0.310;2023-03-31T12:44:23;16.52;;;3.25;;
57565;SDS011;63999;43.882;-0.310;2023-03-31T12:55:45;17.33;;;3.42;;
57565;SDS011;63999;43.882;-0.310;2023-03-31T13:03:51;15.13;;;3.72;;
57565;SDS011;63999;43.882;-0.310;2023-03-31T13:08:57;16.48;;;2.88;;
57565;SDS011;63999;43.882;-0.310;2023-03-31T13:11:35;18.58;;;3.17;;
57565;SDS011;63999;43.882;-0.310;2023-03-31T13:14:12;18.42;;;4.10;;
57565;SDS011;63999;43.882;-0.310;2023-03-31T13:16:58;15.43;;;3.40;;
57565;SDS011;63999;43.882;-0.310;2023-03-31T13:19:56;18.42;;;3.88;;
57565;SDS011;63999;43.882;-0.310;2023-03-31T13:22:42;19.58;;;3.88;;
57565;SDS011;63999;43.882;-0.310;2023-03-31T13:28:07;16.08;;;3.15;;
57565;SDS011;63999;43.882;-0.310;2023-03-31T13:30:52;13.93;;;3.30;;
57565;SDS011;63999;43.882;-0.310;2023-03-31T14:04:15;18.35;;;3.45;;
57565;SDS011;63999;43.882;-0.310;2023-03-31T14:07:01;16.05;;;2.97;;
57565;SDS011;63999;43.882;-0.310;2023-03-31T14:09:39;13.65;;;2.72;;
57565;SDS011;63999;43.882;-0.310;2023-03-31T14:12:29;16.58;;;3.00;;
57565;SDS011;63999;43.882;-0.310;2023-03-31T14:14:59;15.07;;;3.30;;
57565;SDS011;63999;43.882;-0.310;2023-03-31T14:17:26;15.27;;;3.42;;
57565;SDS011;63999;43.882;-0.310;2023-03-31T14:36:07;17.98;;;3.97;;
57565;SDS011;63999;43.882;-0.310;2023-03-31T14:38:35;17.63;;;3.63;;
57565;SDS011;63999;43.882;-0.310;2023-03-31T14:41:01;20.40;;;3.53;;
57565;SDS011;63999;43.882;-0.310;2023-03-31T14:43:29;15.43;;;3.40;;
57565;SDS011;63999;43.882;-0.310;2023-03-31T14:48:40;15.57;;;3.47;;
57565;SDS011;63999;43.882;-0.310;2023-03-31T14:51:10;15.48;;;2.88;;
57565;SDS011;63999;43.882;-0.310;2023-03-31T14:53:40;14.18;;;3.30;;
57565;SDS011;63999;43.882;-0.310;2023-03-31T14:58:42;14.02;;;2.72;;
57565;SDS011;63999;43.882;-0.310;2023-03-31T15:01:13;17.83;;;3.42;;
57565;SDS011;63999;43.882;-0.310;2023-03-31T15:03:43;16.40;;;3.17;;
57565;SDS011;63999;43.882;-0.310;2023-03-31T15:06:11;14.95;;;3.10;;
57565;SDS011;63999;43.882;-0.310;2023-03-31T15:08:38;18.17;;;3.72;;
57565;SDS011;63999;43.882;-0.310;2023-03-31T15:11:05;12.82;;;2.83;;
57565;SDS011;63999;43.882;-0.310;2023-03-31T15:13:34;15.82;;;3.55;;
57565;SDS011;63999;43.882;-0.310;2023-03-31T15:16:18;16.02;;;3.17;;
57565;SDS011;63999;43.882;-0.310;2023-03-31T15:18:52;21.10;;;3.97;;
57565;SDS011;63999;43.882;-0.310;2023-03-31T15:21:26;15.18;;;3.80;;
57565;SDS011;63999;43.882;-0.310;2023-03-31T15:23:55;14.23;;;3.38;;
57565;SDS011;63999;43.882;-0.310;2023-03-31T15:26:26;17.17;;;3.30;;
57565;SDS011;63999;43.882;-0.310;2023-03-31T15:29:08;19.48;;;3.08;;
57565;SDS011;63999;43.882;-0.310;2023-03-31T15:31:49;16.80;;;3.50;;
57565;SDS011;63999;43.882;-0.310;2023-03-31T15:34:24;15.68;;;2.83;;
57565;SDS011;63999;43.882;-0.310;2023-03-31T15:36:53;14.57;;;3.55;;
57565;SDS011;63999;43.882;-0.310;2023-03-31T15:39:20;18.70;;;3.60;;
57565;SDS011;63999;43.882;-0.310;2023-03-31T15:41:51;19.65;;;3.60;;
57565;SDS011;63999;43.882;-0.310;2023-03-31T15:47:18;18.92;;;3.58;;
57565;SDS011;63999;43.882;-0.310;2023-03-31T15:50:02;21.67;;;3.55;;
57565;SDS011;63999;43.882;-0.310;2023-03-31T15:52:35;17.58;;;3.63;;
57565;SDS011;63999;43.882;-0.310;2023-03-31T15:57:51;17.45;;;4.03;;
57565;SDS011;63999;43.882;-0.310;2023-03-31T16:05:58;16.77;;;3.72;;
57565;SDS011;63999;43.882;-0.310;2023-03-31T16:08:38;17.02;;;3.53;;
57565;SDS011;63999;43.882;-0.310;2023-03-31T16:11:09;18.45;;;3.85;;
57565;SDS011;63999;43.882;-0.310;2023-03-31T16:13:42;15.93;;;3.58;;
57565;SDS011;63999;43.882;-0.310;2023-03-31T16:16:13;16.58;;;3.28;;
57565;SDS011;63999;43.882;-0.310;2023-03-31T16:18:42;17.75;;;3.90;;
57565;SDS011;63999;43.882;-0.310;2023-03-31T16:21:23;22.60;;;3.67;;
57565;SDS011;63999;43.882;-0.310;2023-03-31T16:23:53;17.90;;;3.95;;
57565;SDS011;63999;43.882;-0.310;2023-03-31T16:26:23;15.48;;;3.45;;
57565;SDS011;63999;43.882;-0.310;2023-03-31T16:28:52;19.08;;;3.67;;
57565;SDS011;63999;43.882;-0.310;2023-03-31T16:33:59;22.55;;;4.00;;
57565;SDS011;63999;43.882;-0.310;2023-03-31T16:36:30;17.83;;;3.90;;
57565;SDS011;63999;43.882;-0.310;2023-03-31T16:38:56;19.40;;;4.00;;
57565;SDS011;63999;43.882;-0.310;2023-03-31T16:41:24;18.65;;;4.00;;
57565;SDS011;63999;43.882;-0.310;2023-03-31T16:43:52;19.67;;;3.58;;
57565;SDS011;63999;43.882;-0.310;2023-03-31T16:46:19;20.95;;;4.13;;
57565;SDS011;63999;43.882;-0.310;2023-03-31T16:48:46;16.10;;;3.78;;
57565;SDS011;63999;43.882;-0.310;2023-03-31T16:51:12;19.60;;;3.72;;
57565;SDS011;63999;43.882;-0.310;2023-03-31T16:53:38;16.77;;;3.85;;
57565;SDS011;63999;43.882;-0.310;2023-03-31T16:56:05;20.67;;;4.30;;
57565;SDS011;63999;43.882;-0.310;2023-03-31T16:58:32;13.25;;;3.35;;
57565;SDS011;63999;43.882;-0.310;2023-03-31T17:01:00;16.27;;;3.58;;
57565;SDS011;63999;43.882;-0.310;2023-03-31T17:03:27;12.95;;;2.97;;
57565;SDS011;63999;43.882;-0.310;2023-03-31T17:05:53;14.98;;;3.17;;
57565;SDS011;63999;43.882;-0.310;2023-03-31T17:08:22;15.50;;;3.22;;
57565;SDS011;63999;43.882;-0.310;2023-03-31T17:13:17;17.73;;;3.85;;
57565;SDS011;63999;43.882;-0.310;2023-03-31T17:15:44;15.10;;;3.50;;
57565;SDS011;63999;43.882;-0.310;2023-03-31T17:18:10;18.88;;;3.53;;
57565;SDS011;63999;43.882;-0.310;2023-03-31T17:20:36;13.43;;;2.97;;
57565;SDS011;63999;43.882;-0.310;2023-03-31T17:23:02;10.80;;;2.83;;
57565;SDS011;63999;43.882;-0.310;2023-03-31T17:25:28;13.68;;;3.00;;
57565;SDS011;63999;43.882;-0.310;2023-03-31T17:27:54;17.25;;;3.40;;
57565;SDS011;63999;43.882;-0.310;2023-03-31T17:30:21;18.33;;;3.83;;
57565;SDS011;63999;43.882;-0.310;2023-03-31T17:32:47;17.75;;;3.45;;
57565;SDS011;63999;43.882;-0.310;2023-03-31T17:35:14;16.25;;;3.10;;
57565;SDS011;63999;43.882;-0.310;2023-03-31T17:37:46;14.50;;;3.25;;
57565;SDS011;63999;43.882;-0.310;2023-03-31T17:40:14;15.70;;;3.20;;
57565;SDS011;63999;43.882;-0.310;2023-03-31T17:42:41;20.92;;;4.40;;
57565;SDS011;63999;43.882;-0.310;2023-03-31T17:45:08;13.07;;;3.20;;
57565;SDS011;63999;43.882;-0.310;2023-03-31T17:47:36;20.88;;;4.28;;
57565;SDS011;63999;43.882;-0.310;2023-03-31T17:50:01;15.82;;;3.25;;
57565;SDS011;63999;43.882;-0.310;2023-03-31T17:52:27;21.73;;;3.95;;
57565;SDS011;63999;43.882;-0.310;2023-03-31T17:54:53;21.60;;;3.63;;
57565;SDS011;63999;43.882;-0.310;2023-03-31T17:57:21;18.92;;;3.72;;
57565;SDS011;63999;43.882;-0.310;2023-03-31T17:59:47;18.92;;;3.60;;
57565;SDS011;63999;43.882;-0.310;2023-03-31T18:02:13;17.17;;;3.95;;
57565;SDS011;63999;43.882;-0.310;2023-03-31T18:04:40;17.88;;;3.70;;
57565;SDS011;63999;43.882;-0.310;2023-03-31T18:07:06;20.70;;;4.18;;
57565;SDS011;63999;43.882;-0.310;2023-03-31T18:09:32;19.55;;;3.80;;
57565;SDS011;63999;43.882;-0.310;2023-03-31T18:11:59;21.90;;;4.35;;
57565;SDS011;63999;43.882;-0.310;2023-03-31T18:14:25;22.42;;;4.38;;
57565;SDS011;63999;43.882;-0.310;2023-03-31T18:16:51;24.73;;;4.50;;
57565;SDS011;63999;43.882;-0.310;2023-03-31T18:19:17;20.60;;;4.13;;
57565;SDS011;63999;43.882;-0.310;2023-03-31T18:21:43;19.83;;;4.53;;
57565;SDS011;63999;43.882;-0.310;2023-03-31T18:24:10;25.63;;;5.35;;
57565;SDS011;63999;43.882;-0.310;2023-03-31T18:26:37;23.30;;;4.13;;